»·PEaware :: N8337J KLAX-KSAN

N8337J :: KLAX-KSAN

FLIGHT INFORMATION

Flight Status: Arrived
Operator: Privately registered:
United States
More flights under this callsign
Pilot: Mo E. (19341)
Aircraft: BEECH AIRCRAFT BARON
(BE58)
More flights by this aircraft type
Origin: KLAX Los Angeles Intl
United States
Destination: KSAN San Diego Intl-Lindbergh
United States
More flights between these airports :: More routes between these airports
Route: +
File this flight plan on PilotEdge
Remarks: ff cat11
Altitude:
(Current/Filed)
0ft
Speed:
(Current/Filed)
0kts
Departed: 03-Feb-19 03:40 PM
Arrived: 03-Feb-19 04:20 PM
Distance/Time
Traveled:
95nm/0:39
Distance/Time
To Go:
Arrived

Flight Plot

Page will automatically refresh every two minutes.


Map Options




Map Legend


Flown Route
Filed Route
Departure Airport
Arrival Airport
Navaid (VOR, NDB)
Fix

Horizontal Profiles

Position Reports

Time Latitude Longitude Heading Altitude Ground
Speed
03-Feb-19 15:30 33.933577 -118.399824 174 112ft 0kts
03-Feb-19 15:31 33.933577 -118.399824 174 112ft 0kts
03-Feb-19 15:32 33.933577 -118.399824 174 112ft 0kts
03-Feb-19 15:33 33.933577 -118.399824 174 112ft 0kts
03-Feb-19 15:34 33.933852 -118.399054 40 110ft 6kts
03-Feb-19 15:35 33.935002 -118.393775 83 103ft 24kts
03-Feb-19 15:36 33.935903 -118.384958 82 99ft 25kts
03-Feb-19 15:37 33.936357 -118.382816 21 96ft 0kts
03-Feb-19 15:38 33.936357 -118.382816 21 96ft 0kts
03-Feb-19 15:39 33.936085 -118.394198 261 179ft 104kts
03-Feb-19 15:40 33.934597 -118.430988 266 1594ft 109kts
03-Feb-19 15:41 33.933684 -118.467182 266 2961ft 107kts
03-Feb-19 15:42 33.925437 -118.512751 222 3192ft 156kts
03-Feb-19 15:43 33.883897 -118.514322 164 4200ft 148kts
03-Feb-19 15:44 33.848975 -118.479184 139 4483ft 181kts
03-Feb-19 15:45 33.811266 -118.434975 139 4491ft 189kts
03-Feb-19 15:46 33.776159 -118.393199 139 5319ft 160kts
03-Feb-19 15:47 33.745730 -118.355450 139 6240ft 155kts
03-Feb-19 15:48 33.715776 -118.317343 139 7180ft 149kts
03-Feb-19 15:49 33.685482 -118.278317 139 7518ft 178kts
03-Feb-19 15:50 33.650313 -118.232134 136 7511ft 191kts
03-Feb-19 15:51 33.616350 -118.185045 135 7510ft 183kts
03-Feb-19 15:52 33.582829 -118.138893 135 7510ft 183kts
03-Feb-19 15:53 33.549182 -118.092840 135 7511ft 184kts
03-Feb-19 15:54 33.515232 -118.046176 135 7511ft 184kts
03-Feb-19 15:55 33.485165 -118.004162 135 7511ft 183kts
03-Feb-19 15:56 33.454932 -117.961356 135 7512ft 182kts
03-Feb-19 15:57 33.422470 -117.915093 135 7511ft 182kts
03-Feb-19 15:58 33.390125 -117.868794 135 7511ft 181kts
03-Feb-19 15:59 33.357064 -117.821261 133 7512ft 182kts
03-Feb-19 16:00 33.321277 -117.777671 144 7512ft 177kts
03-Feb-19 16:02 33.282917 -117.738156 145 7512ft 176kts
03-Feb-19 16:03 33.244480 -117.699399 145 7502ft 174kts
03-Feb-19 16:04 33.206473 -117.661194 145 7502ft 172kts
03-Feb-19 16:05 33.168970 -117.623550 145 7502ft 170kts
03-Feb-19 16:06 33.131827 -117.586307 145 7502ft 169kts
03-Feb-19 16:07 33.095475 -117.549901 145 7495ft 175kts
03-Feb-19 16:08 33.058022 -117.512451 145 7494ft 177kts
03-Feb-19 16:09 33.020396 -117.474856 145 7494ft 178kts
03-Feb-19 16:10 32.981120 -117.435705 144 6771ft 194kts
03-Feb-19 16:11 32.939397 -117.394058 144 5762ft 189kts
03-Feb-19 16:12 32.900686 -117.355555 144 4547ft 173kts
03-Feb-19 16:13 32.866266 -117.321294 144 2815ft 149kts
03-Feb-19 16:14 32.837231 -117.292434 143 1928ft 140kts
03-Feb-19 16:15 32.806231 -117.261684 143 2158ft 146kts
03-Feb-19 16:16 32.777121 -117.232782 144 2154ft 124kts
03-Feb-19 16:17 32.754503 -117.205965 118 1508ft 119kts
03-Feb-19 16:18 32.746054 -117.168901 117 933ft 109kts
03-Feb-19 16:19 32.730895 -117.178496 280 58ft 84kts
03-Feb-19 16:19 32.732500 -117.188596 226 15ft 0kts
03-Feb-19 16:21 32.732391 -117.190488 195 15ft 13kts
03-Feb-19 16:22 32.731844 -117.189805 114 14ft 0kts
03-Feb-19 16:23 32.731844 -117.189805 114 14ft 0kts
03-Feb-19 16:23 32.731844 -117.189805 114 14ft 0kts
03-Feb-19 16:24 32.731844 -117.189805 114 14ft 0kts
03-Feb-19 16:25 32.731844 -117.189805 114 14ft 0kts
03-Feb-19 16:26 32.731844 -117.189805 114 14ft 0kts
03-Feb-19 16:28 32.731844 -117.189805 114 14ft 0kts
03-Feb-19 16:28 32.731844 -117.189805 114 14ft 0kts
03-Feb-19 16:29 32.731844 -117.189805 114 14ft 0kts
03-Feb-19 16:30 32.731844 -117.189805 114 14ft 0kts

Navigation Log

Ident Type
Flight plan parsing failed, navigation log unavailable